Asia Ruby IV — 9V2667 — position and weather

sailwx.info

Track history (hours):
 
Tides and Currents Weather Stations Pressure Air Temp Water Temp Dewpoint Dewpoint Depression Visibility Wind Speed Wind Dir Waves Ship Positions

Asia Ruby IV

Last reported at 2018-Jan-24 11:30 UTC. Time now 2018-Jan-24 11:54 UTC.
Position N 24°43' E 122°40'.

Length 200 m; draft 11.5 m.

Type: Cargo ship. MMSI: 564515000.

Date/timePositionNaut miles runAvg speedWind from/ knotsBaromVisibWave heightAir tempDewpointWater temp
2018-Jan-24 11:30N 24°43' E 122°40'4 8.7
2018-Jan-24 11:01N 24°38' E 122°40'4 8.6
2018-Jan-24 10:31N 24°34' E 122°39'4 8.2
2018-Jan-24 10:00N 24°30' E 122°38'3 6.7
2018-Jan-24 09:30N 24°27' E 122°36'3 6.9
2018-Jan-24 09:00N 24°24' E 122°35'5 9.6
2018-Jan-24 08:30N 24°19' E 122°33'510.0
2018-Jan-24 08:00N 24°15' E 122°30'510.0
2018-Jan-24 07:31N 24°10' E 122°28'510.2
2018-Jan-24 07:01N 24°06' E 122°26'510.0
2018-Jan-24 06:31N 24°01' E 122°24'5 9.9
2018-Jan-24 06:00N 23°56' E 122°21'610.0
2018-Jan-24 05:25N 23°51' E 122°19'35 9.3
2018-Jan-24 01:37N 23°19' E 122°04'2 9.1
2018-Jan-24 01:26N 23°17' E 122°03'17 8.7
2018-Jan-23 23:28N 23°01' E 121°56'4 8.3
2018-Jan-23 22:59N 22°58' E 121°54'12 8.4
2018-Jan-23 21:33N 22°46' E 121°49'2 8.7
2018-Jan-23 21:20N 22°45' E 121°49'4 8.9
2018-Jan-23 20:56N 22°41' E 121°47'4 8.8
2018-Jan-23 20:27N 22°38' E 121°45'4 8.8
2018-Jan-23 19:59N 22°34' E 121°42'24 9.1
2018-Jan-23 17:20N 22°16' E 121°26'3 9.6
2018-Jan-23 16:59N 22°13' E 121°23'510.1
2018-Jan-23 16:30N 22°10' E 121°20'510.4
2018-Jan-23 16:00N 22°06' E 121°17'510.5
2018-Jan-23 15:30N 22°01' E 121°13'  
Track history (hours):
 
Tides and Currents Weather Stations Pressure Air Temp Water Temp Dewpoint Dewpoint Depression Visibility Wind Speed Wind Dir Waves Ship Positions

Asia Ruby IV

Last reported at 2018-Jan-24 11:30 UTC. Time now 2018-Jan-24 11:54 UTC.
Position N 24°43' E 122°40'.

Length 200 m; draft 11.5 m.

Type: Cargo ship. MMSI: 564515000.

Date/timePositionNaut miles runAvg speedWind from/ knotsBaromVisibWave heightAir tempDewpointWater temp
2018-Jan-24 11:30N 24°43' E 122°40'4 8.7
2018-Jan-24 11:01N 24°38' E 122°40'4 8.6
2018-Jan-24 10:31N 24°34' E 122°39'4 8.2
2018-Jan-24 10:00N 24°30' E 122°38'3 6.7
2018-Jan-24 09:30N 24°27' E 122°36'3 6.9
2018-Jan-24 09:00N 24°24' E 122°35'5 9.6
2018-Jan-24 08:30N 24°19' E 122°33'510.0
2018-Jan-24 08:00N 24°15' E 122°30'510.0
2018-Jan-24 07:31N 24°10' E 122°28'510.2
2018-Jan-24 07:01N 24°06' E 122°26'510.0
2018-Jan-24 06:31N 24°01' E 122°24'5 9.9
2018-Jan-24 06:00N 23°56' E 122°21'610.0
2018-Jan-24 05:25N 23°51' E 122°19'35 9.3
2018-Jan-24 01:37N 23°19' E 122°04'2 9.1
2018-Jan-24 01:26N 23°17' E 122°03'17 8.7
2018-Jan-23 23:28N 23°01' E 121°56'4 8.3
2018-Jan-23 22:59N 22°58' E 121°54'12 8.4
2018-Jan-23 21:33N 22°46' E 121°49'2 8.7
2018-Jan-23 21:20N 22°45' E 121°49'4 8.9
2018-Jan-23 20:56N 22°41' E 121°47'4 8.8
2018-Jan-23 20:27N 22°38' E 121°45'4 8.8
2018-Jan-23 19:59N 22°34' E 121°42'24 9.1
2018-Jan-23 17:20N 22°16' E 121°26'3 9.6
2018-Jan-23 16:59N 22°13' E 121°23'510.1
2018-Jan-23 16:30N 22°10' E 121°20'510.4
2018-Jan-23 16:00N 22°06' E 121°17'510.5
2018-Jan-23 15:30N 22°01' E 121°13'  

Dump ship's entire track history